sensor_id;sensor_type;location;lat;lon;timestamp;pressure;altitude;pressure_sealevel;temperature;humidity
24486;BME280;13449;49.374;8.584;2023-01-16T00:02:23;99303.72;;;5.41;78.10
24486;BME280;13449;49.374;8.584;2023-01-16T00:04:50;99305.78;;;5.39;78.18
24486;BME280;13449;49.374;8.584;2023-01-16T00:07:16;99301.69;;;5.43;78.54
24486;BME280;13449;49.374;8.584;2023-01-16T00:09:43;99290.41;;;5.40;78.98
24486;BME280;13449;49.374;8.584;2023-01-16T00:12:09;99287.50;;;5.41;78.05
24486;BME280;13449;49.374;8.584;2023-01-16T00:14:38;99285.47;;;5.43;77.73
24486;BME280;13449;49.374;8.584;2023-01-16T00:17:05;99277.38;;;5.43;78.07
24486;BME280;13449;49.374;8.584;2023-01-16T00:19:33;99279.03;;;5.44;78.01
24486;BME280;13449;49.374;8.584;2023-01-16T00:22:02;99269.28;;;5.43;78.05
24486;BME280;13449;49.374;8.584;2023-01-16T00:24:29;99263.66;;;5.45;78.17
24486;BME280;13449;49.374;8.584;2023-01-16T00:26:58;99264.88;;;5.42;77.32
24486;BME280;13449;49.374;8.584;2023-01-16T00:29:24;99253.38;;;5.40;78.11
24486;BME280;13449;49.374;8.584;2023-01-16T00:31:51;99252.75;;;5.38;77.24
24486;BME280;13449;49.374;8.584;2023-01-16T00:34:17;99234.28;;;5.27;78.48
24486;BME280;13449;49.374;8.584;2023-01-16T00:36:44;99235.94;;;5.13;78.86
24486;BME280;13449;49.374;8.584;2023-01-16T00:39:11;99229.75;;;5.05;78.50
24486;BME280;13449;49.374;8.584;2023-01-16T00:41:38;99229.28;;;5.01;78.06
24486;BME280;13449;49.374;8.584;2023-01-16T00:44:10;99211.38;;;5.00;79.32
24486;BME280;13449;49.374;8.584;2023-01-16T00:46:36;99217.69;;;4.93;79.56
24486;BME280;13449;49.374;8.584;2023-01-16T00:49:06;99215.19;;;4.91;79.22
24486;BME280;13449;49.374;8.584;2023-01-16T00:51:32;99200.84;;;4.91;79.41
24486;BME280;13449;49.374;8.584;2023-01-16T00:53:59;99198.97;;;4.91;79.91
24486;BME280;13449;49.374;8.584;2023-01-16T00:56:25;99196.38;;;4.98;78.97
24486;BME280;13449;49.374;8.584;2023-01-16T00:58:52;99195.91;;;4.94;78.71
24486;BME280;13449;49.374;8.584;2023-01-16T01:01:20;99181.47;;;4.87;79.57
24486;BME280;13449;49.374;8.584;2023-01-16T01:03:47;99170.47;;;4.88;79.56
24486;BME280;13449;49.374;8.584;2023-01-16T01:06:16;99170.28;;;4.90;80.27
24486;BME280;13449;49.374;8.584;2023-01-16T01:08:42;99177.84;;;4.95;79.76
24486;BME280;13449;49.374;8.584;2023-01-16T01:11:10;99173.63;;;4.92;79.88
24486;BME280;13449;49.374;8.584;2023-01-16T01:13:40;99168.78;;;4.87;79.73
24486;BME280;13449;49.374;8.584;2023-01-16T01:16:10;99160.88;;;4.86;80.56
24486;BME280;13449;49.374;8.584;2023-01-16T01:18:37;99161.41;;;4.81;79.76
24486;BME280;13449;49.374;8.584;2023-01-16T01:21:06;99156.00;;;4.81;79.89
24486;BME280;13449;49.374;8.584;2023-01-16T01:23:33;99142.22;;;4.76;80.86
24486;BME280;13449;49.374;8.584;2023-01-16T01:26:12;99135.84;;;4.69;80.39
24486;BME280;13449;49.374;8.584;2023-01-16T01:28:39;99145.06;;;4.60;80.50
24486;BME280;13449;49.374;8.584;2023-01-16T01:31:10;99126.69;;;4.56;80.95
24486;BME280;13449;49.374;8.584;2023-01-16T01:33:38;99130.63;;;4.53;82.41
24486;BME280;13449;49.374;8.584;2023-01-16T01:36:07;99136.72;;;4.47;81.62
24486;BME280;13449;49.374;8.584;2023-01-16T01:38:34;99132.06;;;4.41;81.33
24486;BME280;13449;49.374;8.584;2023-01-16T01:41:04;99127.03;;;4.38;82.27
24486;BME280;13449;49.374;8.584;2023-01-16T01:43:52;99113.63;;;4.45;82.42
24486;BME280;13449;49.374;8.584;2023-01-16T01:46:30;99101.84;;;4.46;81.97
24486;BME280;13449;49.374;8.584;2023-01-16T01:49:04;99089.47;;;4.51;81.90
24486;BME280;13449;49.374;8.584;2023-01-16T01:51:36;99079.03;;;4.48;81.61
24486;BME280;13449;49.374;8.584;2023-01-16T01:54:09;99079.69;;;4.50;82.43
24486;BME280;13449;49.374;8.584;2023-01-16T01:56:41;99073.75;;;4.55;81.13
24486;BME280;13449;49.374;8.584;2023-01-16T01:59:18;99072.56;;;4.57;81.01
24486;BME280;13449;49.374;8.584;2023-01-16T02:01:47;99060.25;;;4.55;80.76
24486;BME280;13449;49.374;8.584;2023-01-16T02:04:17;99056.69;;;4.54;80.23
24486;BME280;13449;49.374;8.584;2023-01-16T02:06:51;99057.38;;;4.56;79.86
24486;BME280;13449;49.374;8.584;2023-01-16T02:09:21;99060.34;;;4.61;79.64
24486;BME280;13449;49.374;8.584;2023-01-16T02:14:19;99047.91;;;4.75;78.90
24486;BME280;13449;49.374;8.584;2023-01-16T02:16:48;99039.28;;;4.79;79.38
24486;BME280;13449;49.374;8.584;2023-01-16T02:22:34;99028.81;;;4.76;79.10
24486;BME280;13449;49.374;8.584;2023-01-16T02:39:01;98977.41;;;4.99;76.94
24486;BME280;13449;49.374;8.584;2023-01-16T02:44:36;98962.53;;;5.03;77.45
24486;BME280;13449;49.374;8.584;2023-01-16T02:47:16;98953.84;;;5.08;76.85
24486;BME280;13449;49.374;8.584;2023-01-16T02:50:02;98935.97;;;5.07;76.40
24486;BME280;13449;49.374;8.584;2023-01-16T02:52:40;98933.66;;;5.04;75.96
24486;BME280;13449;49.374;8.584;2023-01-16T02:55:21;98920.34;;;5.02;76.28
24486;BME280;13449;49.374;8.584;2023-01-16T02:57:52;98900.50;;;4.95;76.84
24486;BME280;13449;49.374;8.584;2023-01-16T03:00:22;98901.63;;;5.01;76.61
24486;BME280;13449;49.374;8.584;2023-01-16T03:02:49;98897.53;;;5.05;75.99
24486;BME280;13449;49.374;8.584;2023-01-16T03:05:15;98883.34;;;5.03;76.37
24486;BME280;13449;49.374;8.584;2023-01-16T03:11:12;98870.31;;;5.06;76.85
24486;BME280;13449;49.374;8.584;2023-01-16T03:16:47;98871.41;;;5.12;75.53
24486;BME280;13449;49.374;8.584;2023-01-16T03:22:05;98839.06;;;5.18;76.20
24486;BME280;13449;49.374;8.584;2023-01-16T03:27:22;98823.31;;;5.22;76.04
24486;BME280;13449;49.374;8.584;2023-01-16T03:30:25;98819.41;;;5.24;76.50
24486;BME280;13449;49.374;8.584;2023-01-16T03:35:42;98810.69;;;5.29;75.51
24486;BME280;13449;49.374;8.584;2023-01-16T03:38:15;98801.63;;;5.36;75.82
24486;BME280;13449;49.374;8.584;2023-01-16T03:40:46;98804.78;;;5.40;75.09
24486;BME280;13449;49.374;8.584;2023-01-16T03:46:29;98780.31;;;5.48;75.06
24486;BME280;13449;49.374;8.584;2023-01-16T03:49:02;98774.47;;;5.45;75.59
24486;BME280;13449;49.374;8.584;2023-01-16T03:51:39;98779.03;;;5.44;75.79
24486;BME280;13449;49.374;8.584;2023-01-16T03:57:19;98747.00;;;5.41;77.11
24486;BME280;13449;49.374;8.584;2023-01-16T03:59:47;98746.16;;;5.41;76.55
24486;BME280;13449;49.374;8.584;2023-01-16T04:10:08;98718.22;;;5.27;78.17
24486;BME280;13449;49.374;8.584;2023-01-16T04:12:42;98711.34;;;5.24;77.82
24486;BME280;13449;49.374;8.584;2023-01-16T04:15:11;98694.03;;;5.19;78.38
24486;BME280;13449;49.374;8.584;2023-01-16T04:17:43;98690.72;;;5.17;78.17
24486;BME280;13449;49.374;8.584;2023-01-16T04:20:10;98691.72;;;5.16;77.93
24486;BME280;13449;49.374;8.584;2023-01-16T04:22:39;98679.25;;;5.15;78.81
24486;BME280;13449;49.374;8.584;2023-01-16T04:25:07;98670.69;;;5.11;78.85
24486;BME280;13449;49.374;8.584;2023-01-16T04:27:35;98664.47;;;5.11;78.52
24486;BME280;13449;49.374;8.584;2023-01-16T04:30:04;98656.94;;;5.06;79.61
24486;BME280;13449;49.374;8.584;2023-01-16T04:32:31;98642.63;;;5.06;79.79
24486;BME280;13449;49.374;8.584;2023-01-16T04:34:58;98648.66;;;5.08;78.28
24486;BME280;13449;49.374;8.584;2023-01-16T04:37:24;98638.28;;;5.11;78.78
24486;BME280;13449;49.374;8.584;2023-01-16T04:39:51;98640.81;;;5.13;78.34
24486;BME280;13449;49.374;8.584;2023-01-16T04:42:18;98622.09;;;5.11;79.87
24486;BME280;13449;49.374;8.584;2023-01-16T04:44:46;98629.56;;;5.09;78.61
24486;BME280;13449;49.374;8.584;2023-01-16T04:47:12;98614.38;;;5.08;78.66
24486;BME280;13449;49.374;8.584;2023-01-16T04:49:39;98613.97;;;5.11;78.76
24486;BME280;13449;49.374;8.584;2023-01-16T04:52:05;98601.56;;;5.17;78.59
24486;BME280;13449;49.374;8.584;2023-01-16T04:54:32;98594.31;;;5.17;78.77
24486;BME280;13449;49.374;8.584;2023-01-16T04:56:58;98587.84;;;5.18;77.94
24486;BME280;13449;49.374;8.584;2023-01-16T04:59:27;98572.03;;;5.15;78.57
24486;BME280;13449;49.374;8.584;2023-01-16T05:01:54;98567.47;;;5.16;79.04
24486;BME280;13449;49.374;8.584;2023-01-16T05:04:20;98565.63;;;5.16;79.06
24486;BME280;13449;49.374;8.584;2023-01-16T05:06:49;98561.06;;;5.17;78.02
24486;BME280;13449;49.374;8.584;2023-01-16T05:09:16;98549.81;;;5.13;78.89
24486;BME280;13449;49.374;8.584;2023-01-16T05:11:45;98541.09;;;5.18;78.72
24486;BME280;13449;49.374;8.584;2023-01-16T05:14:11;98538.38;;;5.18;78.07
24486;BME280;13449;49.374;8.584;2023-01-16T05:16:39;98527.22;;;5.21;78.60
24486;BME280;13449;49.374;8.584;2023-01-16T05:19:08;98524.50;;;5.21;78.25
24486;BME280;13449;49.374;8.584;2023-01-16T05:21:36;98507.25;;;5.22;77.67
24486;BME280;13449;49.374;8.584;2023-01-16T05:24:03;98495.16;;;5.18;78.11
24486;BME280;13449;49.374;8.584;2023-01-16T05:26:32;98485.19;;;5.12;77.89
24486;BME280;13449;49.374;8.584;2023-01-16T05:29:00;98478.25;;;5.03;78.52
24486;BME280;13449;49.374;8.584;2023-01-16T05:31:29;98464.56;;;5.04;78.73
24486;BME280;13449;49.374;8.584;2023-01-16T05:33:58;98456.28;;;5.06;78.50
24486;BME280;13449;49.374;8.584;2023-01-16T05:36:25;98448.78;;;5.01;78.38
24486;BME280;13449;49.374;8.584;2023-01-16T05:38:51;98440.66;;;4.95;78.96
24486;BME280;13449;49.374;8.584;2023-01-16T05:41:18;98423.19;;;4.91;79.43
24486;BME280;13449;49.374;8.584;2023-01-16T05:43:44;98420.66;;;4.89;78.91
24486;BME280;13449;49.374;8.584;2023-01-16T05:46:11;98415.84;;;4.78;79.32
24486;BME280;13449;49.374;8.584;2023-01-16T05:48:38;98406.28;;;4.75;80.54
24486;BME280;13449;49.374;8.584;2023-01-16T05:51:05;98396.28;;;4.69;79.66
24486;BME280;13449;49.374;8.584;2023-01-16T05:53:32;98401.06;;;4.74;80.25
24486;BME280;13449;49.374;8.584;2023-01-16T05:55:59;98385.47;;;4.69;79.77
24486;BME280;13449;49.374;8.584;2023-01-16T05:58:25;98371.16;;;4.69;80.30
24486;BME280;13449;49.374;8.584;2023-01-16T06:00:52;98369.69;;;4.66;80.41
24486;BME280;13449;49.374;8.584;2023-01-16T06:03:18;98363.03;;;4.69;80.23
24486;BME280;13449;49.374;8.584;2023-01-16T06:05:45;98360.78;;;4.72;80.23
24486;BME280;13449;49.374;8.584;2023-01-16T06:08:11;98354.75;;;4.70;79.47
24486;BME280;13449;49.374;8.584;2023-01-16T06:10:37;98343.94;;;4.64;79.27
24486;BME280;13449;49.374;8.584;2023-01-16T06:13:06;98334.59;;;4.66;79.30
24486;BME280;13449;49.374;8.584;2023-01-16T06:15:33;98332.31;;;4.63;78.82
24486;BME280;13449;49.374;8.584;2023-01-16T06:18:01;98318.16;;;4.55;79.05
24486;BME280;13449;49.374;8.584;2023-01-16T06:20:30;98311.66;;;4.43;80.22
24486;BME280;13449;49.374;8.584;2023-01-16T06:22:57;98309.19;;;4.41;79.72
24486;BME280;13449;49.374;8.584;2023-01-16T06:25:23;98309.78;;;4.36;79.35
24486;BME280;13449;49.374;8.584;2023-01-16T06:27:50;98297.56;;;4.41;79.75
24486;BME280;13449;49.374;8.584;2023-01-16T06:30:17;98290.47;;;4.39;80.16
24486;BME280;13449;49.374;8.584;2023-01-16T06:32:48;98290.72;;;4.45;79.17
24486;BME280;13449;49.374;8.584;2023-01-16T06:35:16;98281.56;;;4.39;79.86
24486;BME280;13449;49.374;8.584;2023-01-16T06:37:42;98278.00;;;4.32;79.85
24486;BME280;13449;49.374;8.584;2023-01-16T06:40:09;98265.31;;;4.26;79.37
24486;BME280;13449;49.374;8.584;2023-01-16T06:42:39;98263.50;;;4.33;79.37
24486;BME280;13449;49.374;8.584;2023-01-16T06:45:07;98251.63;;;4.27;80.27
24486;BME280;13449;49.374;8.584;2023-01-16T06:47:36;98251.03;;;4.32;80.13
24486;BME280;13449;49.374;8.584;2023-01-16T06:50:02;98245.22;;;4.35;80.25
24486;BME280;13449;49.374;8.584;2023-01-16T06:52:29;98234.66;;;4.40;79.99
24486;BME280;13449;49.374;8.584;2023-01-16T06:54:55;98227.84;;;4.44;79.55
24486;BME280;13449;49.374;8.584;2023-01-16T06:57:24;98238.22;;;4.54;78.17
24486;BME280;13449;49.374;8.584;2023-01-16T06:59:51;98209.38;;;4.54;78.74
24486;BME280;13449;49.374;8.584;2023-01-16T07:02:17;98208.13;;;4.50;78.39
24486;BME280;13449;49.374;8.584;2023-01-16T07:04:46;98198.41;;;4.49;79.37
24486;BME280;13449;49.374;8.584;2023-01-16T07:07:13;98202.34;;;4.53;78.06
24486;BME280;13449;49.374;8.584;2023-01-16T07:09:39;98201.94;;;4.56;77.57
24486;BME280;13449;49.374;8.584;2023-01-16T07:12:06;98200.28;;;4.55;77.86
24486;BME280;13449;49.374;8.584;2023-01-16T07:14:33;98185.34;;;4.53;77.92
24486;BME280;13449;49.374;8.584;2023-01-16T07:17:18;98179.94;;;4.59;77.16
24486;BME280;13449;49.374;8.584;2023-01-16T07:20:03;98183.06;;;4.63;76.69
24486;BME280;13449;49.374;8.584;2023-01-16T07:22:48;98171.44;;;4.62;76.17
24486;BME280;13449;49.374;8.584;2023-01-16T07:25:19;98160.88;;;4.61;77.33
24486;BME280;13449;49.374;8.584;2023-01-16T07:27:49;98164.16;;;4.63;76.64
24486;BME280;13449;49.374;8.584;2023-01-16T07:30:17;98147.78;;;4.64;76.24
24486;BME280;13449;49.374;8.584;2023-01-16T07:32:45;98153.19;;;4.64;75.89
24486;BME280;13449;49.374;8.584;2023-01-16T07:35:12;98153.56;;;4.61;76.02
24486;BME280;13449;49.374;8.584;2023-01-16T07:37:38;98138.84;;;4.57;75.98
24486;BME280;13449;49.374;8.584;2023-01-16T07:40:06;98131.38;;;4.59;75.63
24486;BME280;13449;49.374;8.584;2023-01-16T07:42:35;98123.28;;;4.59;76.31
24486;BME280;13449;49.374;8.584;2023-01-16T07:45:02;98124.09;;;4.60;75.53
24486;BME280;13449;49.374;8.584;2023-01-16T07:47:29;98119.75;;;4.59;76.08
24486;BME280;13449;49.374;8.584;2023-01-16T07:49:55;98109.78;;;4.59;76.41
24486;BME280;13449;49.374;8.584;2023-01-16T07:52:25;98110.81;;;4.58;75.77
24486;BME280;13449;49.374;8.584;2023-01-16T07:54:51;98103.97;;;4.56;76.09
24486;BME280;13449;49.374;8.584;2023-01-16T07:57:18;98092.53;;;4.54;76.29
24486;BME280;13449;49.374;8.584;2023-01-16T07:59:46;98090.06;;;4.52;75.77
24486;BME280;13449;49.374;8.584;2023-01-16T08:02:13;98086.75;;;4.57;75.80
24486;BME280;13449;49.374;8.584;2023-01-16T08:04:39;98089.47;;;4.57;76.16
24486;BME280;13449;49.374;8.584;2023-01-16T08:07:06;98091.31;;;4.56;75.49
24486;BME280;13449;49.374;8.584;2023-01-16T08:09:34;98085.09;;;4.62;75.23
24486;BME280;13449;49.374;8.584;2023-01-16T08:12:03;98078.66;;;4.63;75.06
24486;BME280;13449;49.374;8.584;2023-01-16T08:14:29;98079.69;;;4.62;74.84
24486;BME280;13449;49.374;8.584;2023-01-16T08:16:56;98073.25;;;4.63;75.82
24486;BME280;13449;49.374;8.584;2023-01-16T08:19:24;98071.16;;;4.65;75.37
24486;BME280;13449;49.374;8.584;2023-01-16T08:21:51;98064.31;;;4.69;74.99
24486;BME280;13449;49.374;8.584;2023-01-16T08:24:17;98062.47;;;4.70;74.87
24486;BME280;13449;49.374;8.584;2023-01-16T08:26:44;98055.81;;;4.79;74.96
24486;BME280;13449;49.374;8.584;2023-01-16T08:29:11;98037.13;;;4.77;74.26
24486;BME280;13449;49.374;8.584;2023-01-16T08:31:37;98032.78;;;4.83;74.29
24486;BME280;13449;49.374;8.584;2023-01-16T08:34:04;98024.25;;;4.86;74.24
24486;BME280;13449;49.374;8.584;2023-01-16T08:36:31;98028.38;;;4.88;73.64
24486;BME280;13449;49.374;8.584;2023-01-16T08:38:57;98026.09;;;4.92;73.60
24486;BME280;13449;49.374;8.584;2023-01-16T08:41:23;98022.16;;;4.95;73.21
24486;BME280;13449;49.374;8.584;2023-01-16T08:44:11;98020.25;;;4.95;73.02
24486;BME280;13449;49.374;8.584;2023-01-16T08:49:47;98025.47;;;4.97;73.28
24486;BME280;13449;49.374;8.584;2023-01-16T08:52:33;98046.22;;;4.96;73.40
24486;BME280;13449;49.374;8.584;2023-01-16T08:55:06;98018.63;;;4.94;74.09
24486;BME280;13449;49.374;8.584;2023-01-16T08:57:33;98018.63;;;4.94;74.25
24486;BME280;13449;49.374;8.584;2023-01-16T09:00:00;98005.97;;;4.95;74.41
24486;BME280;13449;49.374;8.584;2023-01-16T09:02:27;97999.09;;;4.92;75.86
24486;BME280;13449;49.374;8.584;2023-01-16T09:04:54;97990.16;;;4.92;77.28
24486;BME280;13449;49.374;8.584;2023-01-16T09:07:21;97982.72;;;4.87;78.05
24486;BME280;13449;49.374;8.584;2023-01-16T09:09:48;97986.22;;;4.87;78.02
24486;BME280;13449;49.374;8.584;2023-01-16T09:12:15;97984.75;;;4.92;75.79
24486;BME280;13449;49.374;8.584;2023-01-16T09:15:00;97970.22;;;4.99;78.40
24486;BME280;13449;49.374;8.584;2023-01-16T09:17:27;97970.22;;;4.99;78.10
24486;BME280;13449;49.374;8.584;2023-01-16T09:19:53;97975.81;;;5.04;78.62
24486;BME280;13449;49.374;8.584;2023-01-16T09:22:20;97961.28;;;5.05;79.04
24486;BME280;13449;49.374;8.584;2023-01-16T09:24:47;97963.16;;;5.05;79.51
24486;BME280;13449;49.374;8.584;2023-01-16T09:27:14;97954.00;;;5.06;80.26
24486;BME280;13449;49.374;8.584;2023-01-16T09:29:41;97949.84;;;5.10;81.36
24486;BME280;13449;49.374;8.584;2023-01-16T09:32:07;97939.84;;;5.10;81.18
24486;BME280;13449;49.374;8.584;2023-01-16T09:34:36;97937.34;;;5.15;80.19
24486;BME280;13449;49.374;8.584;2023-01-16T09:37:04;97920.31;;;5.15;81.36
24486;BME280;13449;49.374;8.584;2023-01-16T09:39:31;97934.44;;;5.10;80.35
24486;BME280;13449;49.374;8.584;2023-01-16T09:45:19;97926.34;;;5.10;79.96
24486;BME280;13449;49.374;8.584;2023-01-16T09:47:49;97909.72;;;5.13;80.67
24486;BME280;13449;49.374;8.584;2023-01-16T09:50:30;97907.84;;;5.14;79.74
24486;BME280;13449;49.374;8.584;2023-01-16T09:52:59;97898.69;;;5.15;81.86
24486;BME280;13449;49.374;8.584;2023-01-16T09:55:48;97890.00;;;5.13;83.21
24486;BME280;13449;49.374;8.584;2023-01-16T09:58:39;97897.88;;;5.14;80.72
24486;BME280;13449;49.374;8.584;2023-01-16T10:03:39;97889.56;;;5.16;81.37
24486;BME280;13449;49.374;8.584;2023-01-16T10:08:56;97892.66;;;5.19;81.55
24486;BME280;13449;49.374;8.584;2023-01-16T10:14:35;97895.16;;;5.14;81.37
24486;BME280;13449;49.374;8.584;2023-01-16T10:20:12;97885.81;;;5.17;81.20
24486;BME280;13449;49.374;8.584;2023-01-16T10:25:50;97882.75;;;5.07;84.41
24486;BME280;13449;49.374;8.584;2023-01-16T10:28:32;97867.22;;;5.02;88.23
24486;BME280;13449;49.374;8.584;2023-01-16T10:31:13;97872.63;;;4.96;87.99
24486;BME280;13449;49.374;8.584;2023-01-16T10:33:45;97882.19;;;4.92;87.48
24486;BME280;13449;49.374;8.584;2023-01-16T10:36:20;97861.47;;;4.85;92.10
24486;BME280;13449;49.374;8.584;2023-01-16T10:38:51;97857.94;;;4.85;91.51
24486;BME280;13449;49.374;8.584;2023-01-16T10:41:25;97856.25;;;4.84;92.54
24486;BME280;13449;49.374;8.584;2023-01-16T10:44:27;97842.75;;;4.91;93.97
24486;BME280;13449;49.374;8.584;2023-01-16T10:47:16;97846.06;;;4.93;93.92
24486;BME280;13449;49.374;8.584;2023-01-16T10:50:03;97835.06;;;4.94;92.69
24486;BME280;13449;49.374;8.584;2023-01-16T10:52:29;97834.56;;;5.04;91.88
24486;BME280;13449;49.374;8.584;2023-01-16T10:55:04;97815.88;;;5.09;93.91
24486;BME280;13449;49.374;8.584;2023-01-16T10:57:33;97819.59;;;5.08;91.19
24486;BME280;13449;49.374;8.584;2023-01-16T11:00:08;97804.03;;;5.10;95.40
24486;BME280;13449;49.374;8.584;2023-01-16T11:02:41;97798.63;;;5.10;95.73
24486;BME280;13449;49.374;8.584;2023-01-16T11:08:14;97782.84;;;5.07;93.15
24486;BME280;13449;49.374;8.584;2023-01-16T11:10:44;97786.59;;;5.06;92.15
24486;BME280;13449;49.374;8.584;2023-01-16T11:13:22;97772.88;;;5.07;93.54
24486;BME280;13449;49.374;8.584;2023-01-16T11:18:57;97742.56;;;5.05;94.26
24486;BME280;13449;49.374;8.584;2023-01-16T11:21:31;97729.91;;;5.06;94.28
24486;BME280;13449;49.374;8.584;2023-01-16T11:24:14;97718.81;;;5.14;94.49
24486;BME280;13449;49.374;8.584;2023-01-16T11:26:45;97714.41;;;5.19;93.25
24486;BME280;13449;49.374;8.584;2023-01-16T11:29:16;97703.78;;;5.24;93.75
24486;BME280;13449;49.374;8.584;2023-01-16T11:31:57;97687.53;;;5.31;93.31
24486;BME280;13449;49.374;8.584;2023-01-16T11:34:24;97677.94;;;5.35;91.67
24486;BME280;13449;49.374;8.584;2023-01-16T11:36:58;97663.53;;;5.41;92.53
24486;BME280;13449;49.374;8.584;2023-01-16T11:39:28;97659.53;;;5.44;91.24
24486;BME280;13449;49.374;8.584;2023-01-16T11:41:57;97656.47;;;5.40;91.02
24486;BME280;13449;49.374;8.584;2023-01-16T11:44:30;97654.22;;;5.37;90.34
24486;BME280;13449;49.374;8.584;2023-01-16T11:47:21;97652.56;;;5.36;89.66
24486;BME280;13449;49.374;8.584;2023-01-16T11:49:52;97637.53;;;5.40;88.71
24486;BME280;13449;49.374;8.584;2023-01-16T11:52:21;97643.31;;;5.44;87.86
24486;BME280;13449;49.374;8.584;2023-01-16T11:54:55;97631.28;;;5.46;89.16
24486;BME280;13449;49.374;8.584;2023-01-16T11:58:04;97614.06;;;5.59;87.63
24486;BME280;13449;49.374;8.584;2023-01-16T12:03:39;97591.75;;;5.81;84.54
24486;BME280;13449;49.374;8.584;2023-01-16T12:09:04;97589.88;;;6.00;83.90
24486;BME280;13449;49.374;8.584;2023-01-16T12:12:24;97579.00;;;6.07;84.23
24486;BME280;13449;49.374;8.584;2023-01-16T12:14:33;97575.53;;;6.18;83.37
24486;BME280;13449;49.374;8.584;2023-01-16T12:23:20;97550.19;;;6.42;82.24
24486;BME280;13449;49.374;8.584;2023-01-16T12:29:09;97536.69;;;6.54;80.76
24486;BME280;13449;49.374;8.584;2023-01-16T12:31:45;97539.28;;;6.60;78.47
24486;BME280;13449;49.374;8.584;2023-01-16T12:40:06;97504.72;;;6.86;78.20
24486;BME280;13449;49.374;8.584;2023-01-16T12:58:56;97458.53;;;6.80;76.43
24486;BME280;13449;49.374;8.584;2023-01-16T13:01:28;97451.81;;;6.83;75.55
24486;BME280;13449;49.374;8.584;2023-01-16T13:04:22;97443.34;;;6.79;76.09
24486;BME280;13449;49.374;8.584;2023-01-16T13:06:58;97446.53;;;6.76;76.51
24486;BME280;13449;49.374;8.584;2023-01-16T13:09:46;97437.59;;;6.76;76.65
24486;BME280;13449;49.374;8.584;2023-01-16T13:12:22;97428.41;;;6.77;75.87
24486;BME280;13449;49.374;8.584;2023-01-16T13:15:29;97426.41;;;6.72;76.86
24486;BME280;13449;49.374;8.584;2023-01-16T13:18:14;97419.25;;;6.66;76.83
24486;BME280;13449;49.374;8.584;2023-01-16T13:20:45;97405.59;;;6.61;79.20
24486;BME280;13449;49.374;8.584;2023-01-16T13:23:20;97408.19;;;6.56;79.24
24486;BME280;13449;49.374;8.584;2023-01-16T13:26:00;97387.34;;;6.45;82.00
24486;BME280;13449;49.374;8.584;2023-01-16T13:28:46;97396.44;;;6.39;81.06
24486;BME280;13449;49.374;8.584;2023-01-16T13:33:52;97377.25;;;6.29;82.71
24486;BME280;13449;49.374;8.584;2023-01-16T13:42:17;97370.78;;;6.30;81.57
24486;BME280;13449;49.374;8.584;2023-01-16T13:44:49;97362.22;;;6.33;79.72
24486;BME280;13449;49.374;8.584;2023-01-16T13:47:37;97357.63;;;6.34;80.96
24486;BME280;13449;49.374;8.584;2023-01-16T13:50:24;97346.31;;;6.37;80.25
24486;BME280;13449;49.374;8.584;2023-01-16T13:52:56;97340.09;;;6.36;80.29
24486;BME280;13449;49.374;8.584;2023-01-16T13:55:31;97336.06;;;6.39;79.71
24486;BME280;13449;49.374;8.584;2023-01-16T14:00:38;97323.72;;;6.54;77.92
24486;BME280;13449;49.374;8.584;2023-01-16T14:03:21;97303.09;;;6.53;78.99
24486;BME280;13449;49.374;8.584;2023-01-16T14:05:49;97301.72;;;6.51;79.85
24486;BME280;13449;49.374;8.584;2023-01-16T14:08:24;97290.66;;;6.52;78.86
24486;BME280;13449;49.374;8.584;2023-01-16T14:11:28;97295.34;;;6.57;78.25
24486;BME280;13449;49.374;8.584;2023-01-16T14:14:30;97288.88;;;6.58;77.89
24486;BME280;13449;49.374;8.584;2023-01-16T14:17:17;97260.50;;;6.60;78.88
24486;BME280;13449;49.374;8.584;2023-01-16T14:22:24;97248.13;;;6.64;77.73
24486;BME280;13449;49.374;8.584;2023-01-16T14:24:58;97250.94;;;6.69;77.34
24486;BME280;13449;49.374;8.584;2023-01-16T14:27:47;97233.06;;;6.68;78.75
24486;BME280;13449;49.374;8.584;2023-01-16T14:30:26;97221.41;;;6.68;78.35
24486;BME280;13449;49.374;8.584;2023-01-16T14:32:57;97232.34;;;6.73;77.57
24486;BME280;13449;49.374;8.584;2023-01-16T14:35:51;97208.53;;;6.75;77.48
24486;BME280;13449;49.374;8.584;2023-01-16T14:38:28;97207.25;;;6.77;77.52
24486;BME280;13449;49.374;8.584;2023-01-16T14:41:02;97201.84;;;6.77;77.35
24486;BME280;13449;49.374;8.584;2023-01-16T14:44:16;97207.25;;;6.77;76.04
24486;BME280;13449;49.374;8.584;2023-01-16T14:47:23;97208.78;;;6.73;76.43
24486;BME280;13449;49.374;8.584;2023-01-16T14:50:16;97213.63;;;6.71;76.51
24486;BME280;13449;49.374;8.584;2023-01-16T14:53:13;97189.84;;;6.73;77.16
24486;BME280;13449;49.374;8.584;2023-01-16T14:58:52;97204.69;;;6.71;76.49
24486;BME280;13449;49.374;8.584;2023-01-16T15:01:44;97192.56;;;6.73;76.53
24486;BME280;13449;49.374;8.584;2023-01-16T15:04:44;97190.69;;;6.74;76.36
24486;BME280;13449;49.374;8.584;2023-01-16T15:07:19;97227.38;;;6.82;76.45
24486;BME280;13449;49.374;8.584;2023-01-16T15:09:50;97194.47;;;6.90;77.40
24486;BME280;13449;49.374;8.584;2023-01-16T15:12:17;97192.91;;;6.94;78.56
24486;BME280;13449;49.374;8.584;2023-01-16T15:14:55;97189.13;;;6.95;78.94
24486;BME280;13449;49.374;8.584;2023-01-16T15:17:38;97188.25;;;6.89;79.94
24486;BME280;13449;49.374;8.584;2023-01-16T15:20:26;97177.97;;;6.91;79.56
24486;BME280;13449;49.374;8.584;2023-01-16T15:23:33;97171.19;;;6.89;80.41
24486;BME280;13449;49.374;8.584;2023-01-16T15:29:01;97178.03;;;6.79;82.10
24486;BME280;13449;49.374;8.584;2023-01-16T15:31:44;97178.19;;;6.73;83.53
24486;BME280;13449;49.374;8.584;2023-01-16T15:36:44;97168.97;;;6.57;86.43
24486;BME280;13449;49.374;8.584;2023-01-16T15:39:30;97186.75;;;6.53;86.69
24486;BME280;13449;49.374;8.584;2023-01-16T15:42:07;97180.44;;;6.48;87.82
24486;BME280;13449;49.374;8.584;2023-01-16T15:44:58;97162.31;;;6.48;87.17
24486;BME280;13449;49.374;8.584;2023-01-16T15:50:36;97163.84;;;6.44;87.88
24486;BME280;13449;49.374;8.584;2023-01-16T15:53:06;97160.06;;;6.45;87.09
24486;BME280;13449;49.374;8.584;2023-01-16T15:55:39;97180.75;;;6.51;86.62
24486;BME280;13449;49.374;8.584;2023-01-16T15:58:19;97169.13;;;6.51;85.99
24486;BME280;13449;49.374;8.584;2023-01-16T16:00:57;97174.19;;;6.47;86.33